Main page
METAR-TAF:

METAR-TAF

Airports :

Beauvais, France

Beauvais–Tillé Airport

latitude: 49-28N, longitude: 002-07E, elevation: 109 m

Current weather observation

The report was made 29 minutes ago, at 02:00 UTC
Wind 6 kt from the West
Temperature 14°C
Humidity 88%
Pressure 1012 hPa
Visibility 10 km or more
Few clouds at a height of 1400 ft
Broken clouds at a height of 3700 ft
Broken clouds at a height of 5400 ft

METAR: LFOB 240200Z AUTO 26006KT 9999 FEW014 BKN037 BKN054 14/12 Q1012 NOSIG

Time: 04:29 (02:29 UTC)

Forecast

The report was made 3 hours and 29 minutes ago, at 23:00 UTC
Forecast valid from 24 at 00 UTC to 24 at 24 UTC
Wind 5 kt from the West
Visibility 10 km or more
Broken clouds at a height of 3300 ft
Becoming
from 24 at 04 UTC to 24 at 07 UTC
Broken clouds at a height of 2500 ft
Temporary
from 24 at 12 UTC to 24 at 16 UTC
Broken clouds at a height of 1300 ft, Towering cumulus.
rain showers

TAF: LFOB 232300Z 2400/2424 27005KT 9999 BKN033 BECMG 2404/2407 BKN025 TEMPO 2412/2416 SHRA BKN013TCU

Weather observations and forecasts of more than 4000 airports (METAR and TAF reports).

The available stations are represented by yellow and red dots on the map.

Hover mouse over dot to see the name of the station.

Then click to see weather observations and forecasts.

To change the map : click on the green buttons with a black cross to zoom in, on the green button with a dash to zoom out, or on the green arrows for adjacent maps.


METAR-TAF: